createdAt,value
2019-05-20T00:00:45.575Z,5.10
2019-05-20T00:03:15.234Z,5.00
2019-05-20T00:05:45.058Z,4.57
2019-05-20T00:08:14.506Z,5.27
2019-05-20T00:10:45.233Z,5.27
2019-05-20T00:13:15.210Z,5.60
2019-05-20T00:15:44.854Z,4.63
2019-05-20T00:18:14.171Z,4.90
2019-05-20T00:20:43.730Z,4.43
2019-05-20T00:23:13.881Z,5.00
2019-05-20T00:25:43.355Z,4.50
2019-05-20T00:28:12.677Z,5.10
2019-05-20T00:30:42.014Z,3.87
2019-05-20T00:33:11.376Z,4.43
2019-05-20T00:35:41.074Z,5.97
2019-05-20T00:38:10.409Z,4.63
2019-05-20T00:40:40.385Z,4.73
2019-05-20T00:43:10.433Z,4.83
2019-05-20T00:45:40.183Z,4.93
2019-05-20T00:48:10.158Z,5.40
2019-05-20T00:50:39.914Z,5.37
2019-05-20T00:53:11.443Z,5.00
2019-05-20T00:55:41.523Z,4.70
2019-05-20T00:58:11.161Z,5.30
2019-05-20T01:00:41.468Z,4.93
2019-05-20T01:03:12.012Z,5.40
2019-05-20T01:05:41.712Z,5.13
2019-05-20T01:08:11.043Z,5.03
2019-05-20T01:10:41.358Z,5.87
2019-05-20T01:13:12.440Z,5.20
2019-05-20T01:15:41.766Z,5.10
2019-05-20T01:18:11.314Z,5.97
2019-05-20T01:20:40.720Z,5.57
2019-05-20T01:23:11.647Z,5.80
2019-05-20T01:25:41.355Z,4.77
2019-05-20T01:28:11.397Z,6.27
2019-05-20T01:30:40.891Z,5.50
2019-05-20T01:33:14.408Z,6.20
2019-05-20T01:35:43.994Z,5.13
2019-05-20T01:38:13.660Z,6.10
2019-05-20T01:40:43.624Z,6.03
2019-05-20T01:43:13.523Z,5.60
2019-05-20T01:45:44.761Z,6.30
2019-05-20T01:48:14.423Z,6.13
2019-05-20T01:50:43.796Z,6.50
2019-05-20T01:53:14.507Z,6.67
2019-05-20T01:55:44.900Z,6.40
2019-05-20T01:58:14.518Z,7.03
2019-05-20T02:00:43.883Z,6.93
2019-05-20T02:03:29.940Z,6.23
2019-05-20T02:05:45.268Z,6.23
2019-05-20T02:08:16.117Z,6.20
2019-05-20T02:10:45.487Z,7.23
2019-05-20T02:13:14.739Z,6.77
2019-05-20T02:15:50.632Z,6.10
2019-05-20T02:18:20.148Z,6.33
2019-05-20T02:20:50.195Z,6.70
2019-05-20T02:23:19.851Z,6.50
2019-05-20T02:25:51.338Z,6.50
2019-05-20T02:28:21.035Z,5.80
2019-05-20T02:30:50.355Z,6.23
2019-05-20T02:33:19.700Z,6.83
2019-05-20T02:35:49.016Z,6.67
2019-05-20T02:38:18.671Z,6.77
2019-05-20T02:40:48.376Z,6.03
2019-05-20T02:43:17.678Z,6.23
2019-05-20T02:45:47.461Z,7.00
2019-05-20T02:48:16.792Z,6.53
2019-05-20T02:50:46.914Z,7.00
2019-05-20T02:53:16.526Z,7.03
2019-05-20T02:55:45.843Z,6.10
2019-05-20T02:58:15.366Z,6.87
2019-05-20T03:00:45.032Z,6.67
2019-05-20T03:03:14.647Z,6.57
2019-05-20T03:05:47.491Z,6.27
2019-05-20T03:08:18.597Z,6.70
2019-05-20T03:10:49.717Z,7.57
2019-05-20T03:13:19.258Z,6.30
2019-05-20T03:15:48.903Z,7.77
2019-05-20T03:18:18.283Z,7.23
2019-05-20T03:20:48.923Z,7.90
2019-05-20T03:23:19.325Z,6.87
2019-05-20T03:25:48.613Z,6.17
2019-05-20T03:28:18.346Z,7.60
2019-05-20T03:30:47.957Z,7.83
2019-05-20T03:33:17.680Z,7.40
2019-05-20T03:35:47.462Z,8.13
2019-05-20T03:38:17.131Z,7.17
2019-05-20T03:40:47.031Z,7.73
2019-05-20T03:43:16.378Z,8.10
2019-05-20T03:45:46.332Z,7.73
2019-05-20T03:48:15.599Z,7.50
2019-05-20T03:50:46.447Z,7.40
2019-05-20T03:53:16.922Z,7.87
2019-05-20T03:55:46.900Z,7.73
2019-05-20T03:58:16.673Z,8.90
2019-05-20T04:00:46.912Z,8.93
2019-05-20T04:03:16.643Z,8.03
2019-05-20T04:05:47.105Z,8.33
2019-05-20T04:08:16.564Z,9.77
2019-05-20T04:10:46.132Z,10.50
2019-05-20T04:13:16.290Z,9.63
2019-05-20T04:15:45.710Z,10.73
2019-05-20T04:18:15.027Z,11.77
2019-05-20T04:20:44.699Z,13.33
2019-05-20T04:23:13.996Z,11.53
2019-05-20T04:25:43.295Z,15.73
2019-05-20T04:28:12.610Z,13.70
2019-05-20T04:30:42.079Z,12.43
2019-05-20T04:33:11.734Z,15.87
2019-05-20T04:35:42.594Z,18.63
2019-05-20T04:38:12.301Z,18.07
2019-05-20T04:40:41.794Z,20.00
2019-05-20T04:43:11.471Z,20.87
2019-05-20T04:45:40.771Z,19.57
2019-05-20T04:48:13.637Z,21.77
2019-05-20T04:50:42.084Z,21.53
2019-05-20T04:53:12.199Z,21.03
2019-05-20T04:55:41.882Z,22.90
2019-05-20T04:58:11.903Z,23.10
2019-05-20T05:00:55.212Z,24.47
2019-05-20T05:03:24.542Z,22.80
2019-05-20T05:05:54.503Z,21.30
2019-05-20T05:08:23.933Z,24.20
2019-05-20T05:10:53.962Z,21.53
2019-05-20T05:13:24.015Z,21.83
2019-05-20T05:15:54.281Z,23.93
2019-05-20T05:18:23.877Z,23.77
2019-05-20T05:20:56.525Z,26.37
2019-05-20T05:23:28.471Z,27.53
2019-05-20T05:26:00.753Z,25.73
2019-05-20T05:28:33.513Z,28.07
2019-05-20T05:31:05.854Z,28.80
2019-05-20T05:33:36.755Z,30.10
2019-05-20T05:36:07.909Z,31.00
2019-05-20T05:38:37.338Z,30.67
2019-05-20T05:41:12.707Z,30.13
2019-05-20T05:43:45.567Z,28.50
2019-05-20T05:46:17.259Z,31.07
2019-05-20T05:48:46.656Z,36.20
2019-05-20T05:51:18.247Z,31.47
2019-05-20T05:53:47.646Z,33.10
2019-05-20T05:56:17.439Z,32.57
2019-05-20T05:58:47.423Z,33.87
2019-05-20T06:01:19.059Z,32.00
2019-05-20T06:03:48.688Z,33.30
2019-05-20T06:06:18.311Z,34.73
2019-05-20T06:08:47.836Z,32.67
2019-05-20T06:11:17.384Z,32.00
2019-05-20T06:13:47.005Z,33.00
2019-05-20T06:16:34.991Z,35.87
2019-05-20T06:18:47.984Z,32.67
2019-05-20T06:21:17.598Z,33.73
2019-05-20T06:23:50.830Z,31.97
2019-05-20T06:26:20.207Z,35.77
2019-05-20T06:28:49.507Z,35.57
2019-05-20T06:31:18.950Z,37.93
2019-05-20T06:33:48.645Z,34.40
2019-05-20T06:36:26.739Z,35.03
2019-05-20T06:39:08.803Z,31.77
2019-05-20T06:41:42.458Z,34.73
2019-05-20T06:44:12.226Z,35.33
2019-05-20T06:46:41.843Z,34.87
2019-05-20T06:49:18.367Z,37.90
2019-05-20T06:51:43.377Z,34.17
2019-05-20T06:54:17.768Z,37.50
2019-05-20T06:56:44.703Z,36.17
2019-05-20T06:59:14.786Z,35.90
2019-05-20T07:01:44.690Z,33.20
2019-05-20T07:04:16.660Z,36.87
2019-05-20T07:06:47.534Z,37.33
2019-05-20T07:09:17.220Z,33.93
2019-05-20T07:11:52.576Z,37.07
2019-05-20T07:14:18.487Z,32.20
2019-05-20T07:16:48.232Z,33.53
2019-05-20T07:19:17.583Z,34.43
2019-05-20T07:21:47.527Z,32.93
2019-05-20T07:24:19.036Z,38.13
2019-05-20T07:26:48.914Z,35.07
2019-05-20T07:29:18.255Z,37.97
2019-05-20T07:31:49.733Z,37.17
2019-05-20T07:34:19.059Z,37.17
2019-05-20T07:37:01.931Z,34.00
2019-05-20T07:39:19.775Z,37.23
2019-05-20T07:41:49.419Z,37.07
2019-05-20T07:44:19.136Z,34.47
2019-05-20T07:46:48.475Z,35.23
2019-05-20T07:49:22.139Z,33.90
2019-05-20T07:51:52.655Z,33.50
2019-05-20T07:54:23.325Z,33.73
2019-05-20T07:56:54.856Z,32.80
2019-05-20T07:59:27.536Z,33.03
2019-05-20T08:01:57.000Z,30.20
2019-05-20T08:04:28.155Z,31.37
2019-05-20T08:06:58.052Z,31.00
2019-05-20T08:09:28.243Z,29.87
2019-05-20T08:11:57.982Z,29.97
2019-05-20T08:14:27.385Z,29.83
2019-05-20T08:16:56.891Z,28.93
2019-05-20T08:19:26.211Z,29.10
2019-05-20T08:21:55.604Z,30.77
2019-05-20T08:24:27.128Z,29.97
2019-05-20T08:26:56.518Z,29.40
2019-05-20T08:29:28.944Z,29.57
2019-05-20T08:31:59.608Z,27.10
2019-05-20T08:34:29.191Z,28.30
2019-05-20T08:36:58.940Z,27.63
2019-05-20T08:39:28.259Z,25.97
2019-05-20T08:41:58.253Z,26.73
2019-05-20T08:44:27.655Z,24.00
2019-05-20T08:46:57.349Z,24.17
2019-05-20T08:49:28.000Z,24.67
2019-05-20T08:51:59.914Z,23.57
2019-05-20T08:54:29.421Z,21.50
2019-05-20T08:57:00.542Z,22.13
2019-05-20T08:59:30.903Z,22.37
2019-05-20T09:02:00.205Z,19.60
2019-05-20T09:04:29.960Z,20.13
2019-05-20T09:06:59.235Z,21.10
2019-05-20T09:09:28.634Z,18.27
2019-05-20T09:11:58.020Z,19.27
2019-05-20T09:14:29.247Z,19.70
2019-05-20T09:16:58.618Z,22.00
2019-05-20T09:19:27.929Z,19.20
2019-05-20T09:21:57.469Z,18.73
2019-05-20T09:24:26.794Z,18.37
2019-05-20T09:26:56.615Z,17.97
2019-05-20T09:29:31.833Z,19.50
2019-05-20T09:32:05.530Z,17.97
2019-05-20T09:34:37.446Z,17.80
2019-05-20T09:37:18.695Z,18.43
2019-05-20T09:39:48.104Z,17.40
2019-05-20T09:42:17.767Z,15.80
2019-05-20T09:44:47.841Z,16.30
2019-05-20T09:47:17.489Z,16.43
2019-05-20T09:49:47.198Z,16.60
2019-05-20T09:52:17.015Z,17.87
2019-05-20T09:54:46.368Z,16.80
2019-05-20T09:57:16.143Z,16.80
2019-05-20T09:59:45.440Z,17.20
2019-05-20T10:02:15.151Z,16.57
2019-05-20T10:04:47.871Z,18.07
2019-05-20T10:07:18.929Z,17.80
2019-05-20T10:09:53.589Z,14.90
2019-05-20T10:12:22.974Z,16.60
2019-05-20T10:14:53.954Z,16.90
2019-05-20T10:17:25.087Z,15.57
2019-05-20T10:19:57.693Z,14.90
2019-05-20T10:22:30.936Z,16.17
2019-05-20T10:25:03.476Z,16.87
2019-05-20T10:27:35.081Z,16.30
2019-05-20T10:30:04.955Z,16.13
2019-05-20T10:32:38.402Z,15.03
2019-05-20T10:35:09.536Z,16.17
2019-05-20T10:37:40.002Z,15.20
2019-05-20T10:40:09.583Z,15.87
2019-05-20T10:42:38.879Z,16.23
2019-05-20T10:45:08.692Z,16.13
2019-05-20T10:47:38.066Z,15.77
2019-05-20T10:50:07.737Z,16.60
2019-05-20T10:52:37.834Z,16.17
2019-05-20T10:55:07.662Z,16.50
2019-05-20T10:57:37.370Z,16.50
2019-05-20T11:00:07.749Z,15.80
2019-05-20T11:02:37.146Z,13.57
2019-05-20T11:05:07.181Z,13.63
2019-05-20T11:07:38.163Z,13.43
2019-05-20T11:10:08.211Z,14.47
2019-05-20T11:12:40.150Z,15.47
2019-05-20T11:15:12.308Z,14.70
2019-05-20T11:17:42.561Z,14.37
2019-05-20T11:20:13.845Z,13.13
2019-05-20T11:22:43.142Z,15.53
2019-05-20T11:25:12.634Z,15.40
2019-05-20T11:27:43.420Z,15.37
2019-05-20T11:30:13.779Z,17.30
2019-05-20T11:32:43.137Z,17.30
2019-05-20T11:35:14.665Z,17.27
2019-05-20T11:37:43.975Z,16.77
2019-05-20T11:40:14.445Z,16.33
2019-05-20T11:42:44.479Z,18.67
2019-05-20T11:45:15.409Z,18.57
2019-05-20T11:47:45.236Z,18.00
2019-05-20T11:50:20.520Z,19.00
2019-05-20T11:52:51.208Z,19.40
2019-05-20T11:55:20.996Z,18.47
2019-05-20T11:57:51.727Z,18.00
2019-05-20T12:00:21.244Z,21.13
2019-05-20T12:02:50.602Z,17.97
2019-05-20T12:05:20.595Z,18.10
2019-05-20T12:07:50.619Z,17.13
2019-05-20T12:10:20.094Z,19.53
2019-05-20T12:12:50.097Z,19.57
2019-05-20T12:15:23.486Z,18.87
2019-05-20T12:17:53.712Z,19.17
2019-05-20T12:20:25.074Z,19.07
2019-05-20T12:22:56.281Z,18.97
2019-05-20T12:25:32.180Z,18.97
2019-05-20T12:28:06.579Z,19.03
2019-05-20T12:30:42.642Z,18.40
2019-05-20T12:33:19.325Z,20.40
2019-05-20T12:35:46.881Z,22.70
2019-05-20T12:38:17.869Z,19.53
2019-05-20T12:40:47.162Z,21.17
2019-05-20T12:43:20.905Z,21.07
2019-05-20T12:45:51.825Z,20.77
2019-05-20T12:48:32.021Z,20.07
2019-05-20T12:51:01.654Z,22.20
2019-05-20T12:53:32.316Z,23.37
2019-05-20T12:56:01.658Z,25.50
2019-05-20T12:58:31.131Z,24.97
2019-05-20T13:01:00.653Z,25.03
2019-05-20T13:03:32.716Z,25.73
2019-05-20T13:06:02.889Z,24.80
2019-05-20T13:08:32.974Z,24.07
2019-05-20T13:11:02.333Z,26.70
2019-05-20T13:13:31.652Z,23.83
2019-05-20T13:16:01.394Z,25.90
2019-05-20T13:18:32.522Z,27.60
2019-05-20T13:21:02.687Z,31.20
2019-05-20T13:23:32.535Z,29.20
2019-05-20T13:26:02.197Z,30.50
2019-05-20T13:28:32.366Z,30.13
2019-05-20T13:31:01.784Z,31.53
2019-05-20T13:33:31.999Z,29.90
2019-05-20T13:36:01.581Z,30.03
2019-05-20T13:38:31.439Z,29.67
2019-05-20T13:41:01.884Z,33.37
2019-05-20T13:43:47.028Z,33.40
2019-05-20T13:46:16.671Z,34.17
2019-05-20T13:48:46.319Z,36.83
2019-05-20T13:51:15.621Z,35.20
2019-05-20T13:53:45.019Z,41.40
2019-05-20T13:56:17.663Z,40.13
2019-05-20T13:58:47.750Z,40.40
2019-05-20T14:01:17.014Z,42.87
2019-05-20T14:03:50.752Z,40.27
2019-05-20T14:06:20.814Z,42.67
2019-05-20T14:08:52.251Z,47.37
2019-05-20T14:11:33.866Z,43.83
2019-05-20T14:13:52.837Z,42.07
2019-05-20T14:16:22.861Z,42.70
2019-05-20T14:18:52.481Z,46.60
2019-05-20T14:21:25.041Z,46.17
2019-05-20T14:23:55.131Z,45.10
2019-05-20T14:26:24.955Z,46.30
2019-05-20T14:28:54.649Z,46.57
2019-05-20T14:31:24.018Z,48.30
2019-05-20T14:33:53.945Z,47.13
2019-05-20T14:36:38.705Z,47.93
2019-05-20T14:38:54.787Z,46.07
2019-05-20T14:41:24.134Z,48.73
2019-05-20T14:43:53.540Z,51.07
2019-05-20T14:46:23.333Z,51.83
2019-05-20T14:48:54.098Z,50.00
2019-05-20T14:51:23.449Z,48.93
2019-05-20T14:53:53.515Z,52.63
2019-05-20T14:56:22.917Z,50.60
2019-05-20T14:58:52.646Z,52.43
2019-05-20T15:01:22.062Z,46.77
2019-05-20T15:03:52.162Z,52.23
2019-05-20T15:06:22.666Z,48.83
2019-05-20T15:08:52.033Z,42.50
2019-05-20T15:11:37.826Z,44.07
2019-05-20T15:14:00.147Z,45.30
2019-05-20T15:16:36.902Z,45.60
2019-05-20T15:19:06.779Z,44.10
2019-05-20T15:21:36.495Z,44.60
2019-05-20T15:24:06.423Z,45.20
2019-05-20T15:26:36.319Z,48.37
2019-05-20T15:29:06.364Z,44.60
2019-05-20T15:31:37.099Z,45.67
2019-05-20T15:34:06.828Z,44.33
2019-05-20T15:36:36.873Z,43.30
2019-05-20T15:39:07.243Z,45.90
2019-05-20T15:41:37.312Z,45.03
2019-05-20T15:44:06.717Z,44.83
2019-05-20T15:46:38.396Z,42.03
2019-05-20T15:49:07.722Z,44.87
2019-05-20T15:51:37.394Z,43.73
2019-05-20T15:54:07.258Z,45.43
2019-05-20T15:56:39.159Z,44.30
2019-05-20T15:59:08.906Z,45.77
2019-05-20T16:01:43.364Z,44.70
2019-05-20T16:04:17.584Z,46.27
2019-05-20T16:06:51.690Z,43.37
2019-05-20T16:09:21.427Z,45.93
2019-05-20T16:11:51.544Z,45.67
2019-05-20T16:14:20.840Z,44.30
2019-05-20T16:16:50.212Z,44.43
2019-05-20T16:19:19.947Z,46.30
2019-05-20T16:21:49.358Z,46.53
2019-05-20T16:24:19.160Z,47.63
2019-05-20T16:26:48.545Z,50.20
2019-05-20T16:29:20.648Z,47.80
2019-05-20T16:31:49.997Z,46.93
2019-05-20T16:34:19.722Z,50.43
2019-05-20T16:36:49.107Z,48.37
2019-05-20T16:39:18.879Z,49.60
2019-05-20T16:41:48.204Z,46.83
2019-05-20T16:44:17.862Z,54.77
2019-05-20T16:46:47.268Z,47.87
2019-05-20T16:49:16.673Z,53.37
2019-05-20T16:51:46.737Z,46.97
2019-05-20T16:54:16.069Z,49.23
2019-05-20T16:56:45.469Z,47.43
2019-05-20T16:59:16.640Z,47.83
2019-05-20T17:01:46.738Z,45.97
2019-05-20T17:04:16.525Z,50.43
2019-05-20T17:06:46.681Z,45.27
2019-05-20T17:09:16.054Z,48.47
2019-05-20T17:11:45.750Z,43.43
2019-05-20T17:14:15.105Z,49.60
2019-05-20T17:16:44.801Z,46.43
2019-05-20T17:19:14.493Z,46.10
2019-05-20T17:21:44.147Z,44.63
2019-05-20T17:24:13.512Z,45.83
2019-05-20T17:26:42.834Z,42.93
2019-05-20T17:29:12.217Z,45.47
2019-05-20T17:31:41.543Z,47.77
2019-05-20T17:34:10.927Z,47.07
2019-05-20T17:36:40.594Z,44.27
2019-05-20T17:39:10.397Z,48.60
2019-05-20T17:41:42.056Z,45.83
2019-05-20T17:44:13.354Z,48.50
2019-05-20T17:46:42.742Z,46.10
2019-05-20T17:49:12.210Z,43.00
2019-05-20T17:51:43.425Z,46.37
2019-05-20T17:54:14.450Z,42.90
2019-05-20T17:56:43.773Z,48.03
2019-05-20T17:59:13.866Z,42.53
2019-05-20T18:01:43.532Z,42.80
2019-05-20T18:04:12.905Z,41.90
2019-05-20T18:06:42.287Z,44.07
2019-05-20T18:09:12.012Z,46.57
2019-05-20T18:11:41.737Z,45.10
2019-05-20T18:14:11.253Z,41.37
2019-05-20T18:16:41.132Z,43.03
2019-05-20T18:19:10.776Z,44.10
2019-05-20T18:21:40.489Z,40.40
2019-05-20T18:24:09.822Z,47.67
2019-05-20T18:26:41.518Z,41.37
2019-05-20T18:29:10.863Z,43.20
2019-05-20T18:31:40.620Z,42.13
2019-05-20T18:34:10.413Z,46.70
2019-05-20T18:36:39.993Z,44.00
2019-05-20T18:39:12.540Z,46.93
2019-05-20T18:41:41.831Z,45.40
2019-05-20T18:44:13.258Z,45.00
2019-05-20T18:46:42.341Z,44.37
2019-05-20T18:49:12.663Z,46.33
2019-05-20T18:51:42.039Z,44.23
2019-05-20T18:54:12.044Z,47.13
2019-05-20T18:56:42.169Z,50.33
2019-05-20T18:59:11.897Z,51.43
2019-05-20T19:01:50.948Z,54.23
2019-05-20T19:04:15.876Z,51.77
2019-05-20T19:06:46.230Z,50.17
2019-05-20T19:09:18.106Z,52.93
2019-05-20T19:11:48.397Z,51.23
2019-05-20T19:14:20.225Z,54.40
2019-05-20T19:16:49.586Z,55.27
2019-05-20T19:19:21.628Z,52.57
2019-05-20T19:21:52.991Z,55.63
2019-05-20T19:24:22.099Z,54.93
2019-05-20T19:26:52.929Z,57.67
2019-05-20T19:29:22.628Z,58.93
2019-05-20T19:32:01.354Z,55.13
2019-05-20T19:34:23.748Z,54.37
2019-05-20T19:36:53.847Z,56.37
2019-05-20T19:39:25.955Z,59.17
2019-05-20T19:41:57.293Z,55.37
2019-05-20T19:44:27.017Z,59.87
2019-05-20T19:46:56.345Z,65.43
2019-05-20T19:49:25.710Z,58.70
2019-05-20T19:51:56.402Z,59.43
2019-05-20T19:54:32.338Z,56.97
2019-05-20T19:57:02.118Z,59.33
2019-05-20T19:59:32.152Z,61.87
2019-05-20T20:02:15.151Z,62.37
2019-05-20T20:04:34.234Z,59.97
2019-05-20T20:07:05.730Z,58.37
2019-05-20T20:09:38.267Z,72.40
2019-05-20T20:12:07.673Z,61.57
2019-05-20T20:14:37.066Z,57.73
2019-05-20T20:17:06.735Z,62.23
2019-05-20T20:19:36.098Z,69.77
2019-05-20T20:22:06.950Z,64.27
2019-05-20T20:24:36.316Z,64.27
2019-05-20T20:27:06.863Z,67.77
2019-05-20T20:29:36.591Z,69.77
2019-05-20T20:32:05.999Z,62.13
2019-05-20T20:34:37.085Z,64.57
2019-05-20T20:37:07.290Z,62.50
2019-05-20T20:39:37.060Z,71.80
2019-05-20T20:42:09.730Z,76.20
2019-05-20T20:44:41.251Z,60.43
2019-05-20T20:47:10.653Z,70.53
2019-05-20T20:49:40.499Z,74.23
2019-05-20T20:52:10.001Z,84.17
2019-05-20T20:54:39.631Z,72.97
2019-05-20T20:57:09.007Z,66.40
2019-05-20T20:59:38.678Z,70.43
2019-05-20T21:02:12.178Z,62.60
2019-05-20T21:04:41.591Z,69.23
2019-05-20T21:07:15.233Z,79.30
2019-05-20T21:09:45.560Z,71.90
2019-05-20T21:12:15.447Z,66.93
2019-05-20T21:14:45.168Z,78.57
2019-05-20T21:17:14.515Z,79.13
2019-05-20T21:19:48.358Z,69.33
2019-05-20T21:22:19.581Z,82.50
2019-05-20T21:24:51.209Z,73.03
2019-05-20T21:27:33.103Z,86.67
2019-05-20T21:30:02.509Z,69.40
2019-05-20T21:32:32.305Z,70.93
2019-05-20T21:35:01.747Z,82.00
2019-05-20T21:37:32.923Z,70.77
2019-05-20T21:40:02.583Z,78.87
2019-05-20T21:42:34.718Z,71.43
2019-05-20T21:45:06.327Z,65.67
2019-05-20T21:47:37.972Z,66.03
2019-05-20T21:50:07.690Z,66.73
2019-05-20T21:52:38.445Z,83.53
2019-05-20T21:55:08.380Z,85.07
2019-05-20T21:57:38.546Z,62.17
2019-05-20T22:00:10.370Z,69.50
2019-05-20T22:02:45.062Z,49.57
2019-05-20T22:05:21.625Z,69.40
2019-05-20T22:07:58.300Z,67.70
2019-05-20T22:10:32.094Z,55.40
2019-05-20T22:13:06.865Z,59.73
2019-05-20T22:15:42.574Z,80.43
2019-05-20T22:18:12.677Z,58.50
2019-05-20T22:20:44.706Z,72.87
2019-05-20T22:23:39.498Z,55.30
2019-05-20T22:26:16.271Z,58.37
2019-05-20T22:28:50.381Z,68.57
2019-05-20T22:31:26.009Z,64.03
2019-05-20T22:33:59.221Z,50.47
2019-05-20T22:36:31.202Z,53.07
2019-05-20T22:39:02.931Z,72.03
2019-05-20T22:41:34.868Z,69.37
2019-05-20T22:44:04.524Z,51.87
2019-05-20T22:46:35.147Z,59.53
2019-05-20T22:49:04.940Z,56.20
2019-05-20T22:51:34.267Z,76.80
2019-05-20T22:54:04.070Z,72.17
2019-05-20T22:56:33.808Z,56.93
2019-05-20T22:59:03.161Z,85.00
2019-05-20T23:01:32.775Z,54.07
2019-05-20T23:04:02.084Z,95.37
2019-05-20T23:06:32.111Z,61.97
2019-05-20T23:09:02.379Z,62.43
2019-05-20T23:11:48.180Z,66.23
2019-05-20T23:14:22.653Z,80.63
2019-05-20T23:16:52.346Z,72.67
2019-05-20T23:19:52.959Z,57.83
2019-05-20T23:22:22.573Z,61.27
2019-05-20T23:24:52.171Z,55.37
2019-05-20T23:27:21.912Z,44.47
2019-05-20T23:29:51.220Z,54.93
2019-05-20T23:32:22.966Z,48.47
2019-05-20T23:34:53.850Z,56.10
2019-05-20T23:37:23.419Z,52.47
2019-05-20T23:39:55.558Z,56.80
2019-05-20T23:42:29.467Z,50.40
2019-05-20T23:44:58.803Z,38.70
2019-05-20T23:47:28.172Z,43.13
2019-05-20T23:49:57.897Z,44.07
2019-05-20T23:52:29.957Z,41.60
2019-05-20T23:54:59.350Z,37.03
2019-05-20T23:57:28.680Z,41.33
2019-05-20T23:59:58.316Z,42.47
